createdAt,value
2019-01-14T00:01:11.805Z,64.10
2019-01-14T00:03:39.268Z,64.00
2019-01-14T00:06:10.288Z,64.50
2019-01-14T00:08:36.338Z,63.80
2019-01-14T00:11:04.389Z,63.70
2019-01-14T00:13:32.939Z,63.70
2019-01-14T00:16:00.467Z,63.70
2019-01-14T00:20:55.207Z,63.60
2019-01-14T00:23:22.523Z,63.50
2019-01-14T00:25:49.900Z,63.50
2019-01-14T00:28:17.261Z,63.50
2019-01-14T00:30:44.595Z,63.40
2019-01-14T00:33:13.001Z,63.40
2019-01-14T00:35:40.453Z,64.10
2019-01-14T00:38:07.914Z,63.50
2019-01-14T00:40:35.487Z,63.30
2019-01-14T00:43:03.432Z,63.30
2019-01-14T00:45:30.787Z,63.10
2019-01-14T00:47:58.210Z,63.20
2019-01-14T00:50:25.535Z,63.10
2019-01-14T00:52:52.872Z,63.10
2019-01-14T00:55:20.500Z,63.10
2019-01-14T00:57:47.805Z,63.00
2019-01-14T01:02:47.142Z,63.00
2019-01-14T01:05:14.572Z,63.00
2019-01-14T01:07:42.346Z,63.00
2019-01-14T01:10:10.925Z,62.80
2019-01-14T01:12:38.284Z,62.80
2019-01-14T01:15:07.661Z,62.70
2019-01-14T01:17:35.096Z,62.70
2019-01-14T01:20:03.202Z,62.50
2019-01-14T01:22:30.703Z,62.70
2019-01-14T01:24:58.095Z,62.50
2019-01-14T01:27:25.490Z,62.30
2019-01-14T01:29:52.793Z,62.20
2019-01-14T01:32:20.188Z,62.30
2019-01-14T01:34:47.586Z,62.20
2019-01-14T01:37:15.382Z,62.10
2019-01-14T01:39:43.127Z,62.20
2019-01-14T01:42:10.449Z,61.20
2019-01-14T01:44:37.857Z,62.60
2019-01-14T01:47:05.290Z,61.70
2019-01-14T01:49:32.586Z,61.70
2019-01-14T01:51:59.862Z,61.70
2019-01-14T01:54:27.314Z,61.70
2019-01-14T01:56:54.574Z,61.80
2019-01-14T01:59:21.864Z,61.90
2019-01-14T02:01:49.138Z,61.60
2019-01-14T02:04:16.470Z,61.60
2019-01-14T02:06:43.734Z,61.60
2019-01-14T02:09:11.206Z,61.50
2019-01-14T02:11:38.478Z,61.40
2019-01-14T02:14:05.879Z,62.00
2019-01-14T02:16:33.642Z,61.30
2019-01-14T02:19:00.941Z,61.20
2019-01-14T02:21:28.338Z,61.20
2019-01-14T02:23:55.873Z,61.30
2019-01-14T02:26:23.170Z,61.40
2019-01-14T02:28:50.477Z,61.40
2019-01-14T02:33:46.463Z,61.60
2019-01-14T02:36:13.867Z,61.60
2019-01-14T02:38:41.301Z,61.70
2019-01-14T02:41:08.641Z,61.80
2019-01-14T02:43:36.057Z,61.80
2019-01-14T02:46:04.363Z,61.70
2019-01-14T02:50:59.463Z,61.60
2019-01-14T02:53:26.857Z,61.60
2019-01-14T02:55:54.231Z,61.60
2019-01-14T02:58:21.635Z,61.60
2019-01-14T03:00:48.935Z,61.70
2019-01-14T03:03:16.231Z,61.60
2019-01-14T03:08:11.588Z,61.40
2019-01-14T03:10:38.979Z,61.30
2019-01-14T03:15:33.645Z,61.20
2019-01-14T03:18:01.101Z,60.90
2019-01-14T03:20:28.360Z,60.90
2019-01-14T03:22:55.647Z,60.90
2019-01-14T03:25:22.971Z,60.90
2019-01-14T03:27:50.265Z,60.90
2019-01-14T03:30:18.521Z,60.90
2019-01-14T03:32:46.160Z,63.20
2019-01-14T03:35:13.543Z,61.00
2019-01-14T03:37:40.784Z,60.70
2019-01-14T03:40:12.146Z,60.90
2019-01-14T03:42:39.495Z,60.60
2019-01-14T03:45:07.765Z,60.50
2019-01-14T03:47:35.184Z,60.50
2019-01-14T03:50:02.959Z,60.50
2019-01-14T03:52:30.241Z,60.40
2019-01-14T03:54:57.555Z,60.50
2019-01-14T03:57:24.806Z,60.40
2019-01-14T03:59:52.089Z,60.20
2019-01-14T04:02:19.360Z,60.30
2019-01-14T04:04:46.622Z,60.30
2019-01-14T04:07:14.080Z,60.20
2019-01-14T04:09:41.324Z,60.20
2019-01-14T04:12:08.633Z,60.00
2019-01-14T04:14:35.998Z,60.00
2019-01-14T04:17:03.338Z,60.00
2019-01-14T04:19:30.636Z,60.70
2019-01-14T04:21:57.804Z,60.20
2019-01-14T04:24:25.083Z,60.20
2019-01-14T04:26:52.361Z,60.20
2019-01-14T04:29:19.623Z,60.10
2019-01-14T04:31:46.867Z,60.80
2019-01-14T04:34:14.147Z,60.00
2019-01-14T04:36:41.441Z,60.10
2019-01-14T04:39:10.318Z,60.00
2019-01-14T04:41:37.609Z,60.10
2019-01-14T04:44:04.915Z,60.00
2019-01-14T04:46:32.196Z,59.90
2019-01-14T04:48:59.474Z,59.80
2019-01-14T04:51:26.854Z,59.80
2019-01-14T04:53:54.112Z,59.60
2019-01-14T04:56:21.462Z,59.60
2019-01-14T04:58:48.799Z,59.60
2019-01-14T05:03:44.697Z,59.50
2019-01-14T05:06:12.134Z,59.30
2019-01-14T05:08:39.496Z,59.30
2019-01-14T05:11:06.859Z,59.30
2019-01-14T05:13:34.162Z,59.30
2019-01-14T05:16:01.531Z,59.40
2019-01-14T05:18:28.804Z,59.30
2019-01-14T05:23:23.371Z,59.40
2019-01-14T05:25:50.689Z,59.40
2019-01-14T05:28:18.056Z,59.40
2019-01-14T05:30:45.442Z,60.00
2019-01-14T05:33:12.729Z,59.40
2019-01-14T05:35:39.930Z,59.40
2019-01-14T05:38:07.129Z,59.90
2019-01-14T05:40:34.427Z,59.30
2019-01-14T05:43:01.681Z,59.40
2019-01-14T05:45:29.041Z,59.40
2019-01-14T05:47:56.371Z,59.40
2019-01-14T05:50:23.626Z,59.40
2019-01-14T05:55:18.151Z,59.40
2019-01-14T05:57:45.483Z,59.40
2019-01-14T06:00:16.731Z,59.50
2019-01-14T06:02:44.169Z,59.40
2019-01-14T06:05:11.477Z,59.50
2019-01-14T06:07:44.938Z,59.50
2019-01-14T06:10:11.245Z,59.50
2019-01-14T06:12:38.556Z,59.50
2019-01-14T06:15:06.185Z,59.50
2019-01-14T06:17:33.545Z,59.60
2019-01-14T06:20:01.696Z,59.60
2019-01-14T06:22:29.065Z,59.60
2019-01-14T06:24:56.411Z,59.60
2019-01-14T06:27:23.679Z,59.60
2019-01-14T06:32:18.256Z,59.50
2019-01-14T06:34:45.667Z,59.40
2019-01-14T06:37:12.931Z,59.40
2019-01-14T06:42:07.696Z,59.40
2019-01-14T06:44:35.206Z,59.80
2019-01-14T06:47:02.392Z,59.30
2019-01-14T06:49:29.783Z,59.40
2019-01-14T06:51:57.179Z,60.00
2019-01-14T06:54:24.589Z,59.50
2019-01-14T06:56:51.888Z,59.50
2019-01-14T06:59:19.297Z,59.50
2019-01-14T07:01:46.706Z,59.50
2019-01-14T07:04:14.057Z,59.40
2019-01-14T07:06:41.345Z,59.40
2019-01-14T07:09:08.735Z,59.40
2019-01-14T07:11:36.915Z,59.40
2019-01-14T07:14:04.222Z,59.40
2019-01-14T07:16:31.717Z,59.40
2019-01-14T07:19:18.758Z,59.40
2019-01-14T07:24:13.502Z,59.40
2019-01-14T07:26:44.448Z,59.40
2019-01-14T07:29:11.867Z,59.40
2019-01-14T07:31:39.331Z,59.50
2019-01-14T07:36:36.830Z,59.40
2019-01-14T07:39:07.242Z,59.50
2019-01-14T07:41:34.586Z,59.60
2019-01-14T07:44:01.950Z,59.70
2019-01-14T07:51:24.177Z,59.80
2019-01-14T07:56:27.026Z,59.80
2019-01-14T08:01:22.085Z,59.80
2019-01-14T08:03:49.603Z,59.80
2019-01-14T08:06:16.972Z,59.80
2019-01-14T08:08:44.323Z,59.80
2019-01-14T08:11:11.660Z,60.30
2019-01-14T08:13:39.046Z,59.70
2019-01-14T08:16:06.441Z,59.80
2019-01-14T08:18:33.817Z,59.60
2019-01-14T08:21:03.556Z,59.50
2019-01-14T08:23:30.958Z,59.50
2019-01-14T08:25:58.240Z,59.50
2019-01-14T08:28:25.623Z,59.50
2019-01-14T08:30:52.926Z,59.50
2019-01-14T08:33:20.314Z,59.50
2019-01-14T08:35:47.629Z,59.40
2019-01-14T08:38:21.012Z,59.40
2019-01-14T08:40:44.135Z,59.40
2019-01-14T08:43:11.428Z,59.50
2019-01-14T08:45:38.781Z,59.50
2019-01-14T08:48:06.099Z,59.40
2019-01-14T08:50:33.318Z,59.40
2019-01-14T08:53:00.619Z,59.40
2019-01-14T08:55:28.053Z,59.40
2019-01-14T08:57:55.440Z,59.40
2019-01-14T09:00:22.790Z,59.40
2019-01-14T09:02:50.327Z,59.40
2019-01-14T09:05:17.805Z,59.30
2019-01-14T09:07:45.135Z,59.30
2019-01-14T09:10:23.919Z,59.20
2019-01-14T09:12:51.371Z,59.20
2019-01-14T09:15:18.743Z,59.10
2019-01-14T09:20:17.332Z,59.10
2019-01-14T09:22:44.764Z,59.10
2019-01-14T09:25:12.211Z,59.00
2019-01-14T09:27:39.525Z,59.00
2019-01-14T09:30:20.710Z,59.00
2019-01-14T09:32:48.055Z,59.00
2019-01-14T09:35:15.457Z,59.10
2019-01-14T09:37:42.937Z,59.10
2019-01-14T09:40:12.496Z,59.10
2019-01-14T09:42:39.814Z,59.00
2019-01-14T09:45:07.320Z,59.10
2019-01-14T09:47:34.714Z,59.20
2019-01-14T09:50:02.087Z,59.20
2019-01-14T09:52:29.495Z,59.20
2019-01-14T09:54:56.902Z,59.20
2019-01-14T09:57:40.554Z,59.30
2019-01-14T10:00:08.452Z,59.30
2019-01-14T10:02:35.899Z,59.40
2019-01-14T10:05:05.202Z,59.40
2019-01-14T10:07:32.482Z,59.40
2019-01-14T10:12:27.057Z,59.40
2019-01-14T10:14:54.356Z,59.20
2019-01-14T10:17:25.244Z,59.30
2019-01-14T10:19:52.580Z,59.20
2019-01-14T10:22:19.949Z,59.10
2019-01-14T10:24:47.266Z,59.20
2019-01-14T10:27:14.651Z,59.10
2019-01-14T10:29:42.000Z,59.10
2019-01-14T10:32:09.306Z,59.20
2019-01-14T10:34:36.765Z,59.20
2019-01-14T10:39:31.612Z,59.20
2019-01-14T10:41:59.058Z,59.40
2019-01-14T10:44:26.443Z,59.30
2019-01-14T10:46:53.760Z,59.10
2019-01-14T10:49:21.077Z,59.20
2019-01-14T10:51:48.412Z,59.20
2019-01-14T10:54:15.708Z,59.10
2019-01-14T10:59:11.811Z,59.10
2019-01-14T11:01:39.200Z,59.00
2019-01-14T11:04:06.575Z,59.10
2019-01-14T11:06:34.090Z,58.90
2019-01-14T11:09:05.735Z,59.00
2019-01-14T11:11:30.756Z,59.10
2019-01-14T11:16:25.406Z,59.20
2019-01-14T11:18:52.980Z,59.20
2019-01-14T11:21:20.428Z,60.00
2019-01-14T11:23:47.950Z,59.30
2019-01-14T11:26:15.444Z,59.20
2019-01-14T11:28:42.832Z,59.10
2019-01-14T11:31:10.282Z,59.20
2019-01-14T11:33:57.240Z,59.20
2019-01-14T11:36:24.618Z,59.40
2019-01-14T11:38:52.018Z,59.40
2019-01-14T11:48:16.466Z,59.40
2019-01-14T11:50:44.696Z,59.40
2019-01-14T11:53:12.092Z,59.40
2019-01-14T11:58:06.857Z,59.20
2019-01-14T12:05:30.834Z,59.30
2019-01-14T12:07:58.231Z,59.10
2019-01-14T12:10:25.507Z,59.00
2019-01-14T12:12:52.938Z,58.90
2019-01-14T12:15:25.915Z,58.90
2019-01-14T12:20:20.568Z,58.90
2019-01-14T12:32:42.436Z,58.60
2019-01-14T12:35:09.877Z,58.70
2019-01-14T12:37:37.241Z,58.70
2019-01-14T12:49:54.705Z,58.90
2019-01-14T12:52:22.037Z,59.00
2019-01-14T12:57:29.448Z,59.20
2019-01-14T12:59:56.841Z,59.20
2019-01-14T13:04:51.537Z,59.10
2019-01-14T13:07:18.859Z,59.10
2019-01-14T13:09:46.142Z,59.10
2019-01-14T13:12:13.571Z,59.00
2019-01-14T13:14:40.893Z,59.10
2019-01-14T13:17:08.230Z,59.20
2019-01-14T13:19:35.664Z,59.20
2019-01-14T13:22:06.798Z,59.40
2019-01-14T13:24:34.228Z,59.50
2019-01-14T13:27:01.619Z,59.60
2019-01-14T13:29:29.071Z,59.70
2019-01-14T13:31:56.438Z,59.60
2019-01-14T13:34:23.813Z,59.80
2019-01-14T13:36:51.251Z,59.80
2019-01-14T13:39:18.555Z,59.60
2019-01-14T13:41:45.921Z,59.50
2019-01-14T13:44:13.104Z,59.40
2019-01-14T13:46:40.422Z,59.40
2019-01-14T13:49:07.902Z,59.50
2019-01-14T13:51:35.209Z,59.50
2019-01-14T13:54:02.603Z,59.50
2019-01-14T13:56:29.904Z,59.50
2019-01-14T13:58:57.222Z,59.40
2019-01-14T14:01:24.640Z,59.30
2019-01-14T14:03:52.028Z,59.40
2019-01-14T14:06:19.318Z,59.40
2019-01-14T14:08:46.531Z,59.40
2019-01-14T14:11:13.812Z,59.30
2019-01-14T14:16:08.721Z,58.90
2019-01-14T14:21:05.746Z,58.60
2019-01-14T14:23:33.516Z,58.50
2019-01-14T14:28:28.610Z,58.40
2019-01-14T14:30:55.994Z,58.50
2019-01-14T14:33:23.322Z,58.40
2019-01-14T14:35:50.873Z,58.50
2019-01-14T14:38:18.535Z,58.60
2019-01-14T14:43:13.208Z,58.60
2019-01-14T14:45:40.595Z,58.60
2019-01-14T14:48:08.203Z,58.80
2019-01-14T14:50:35.595Z,59.00
2019-01-14T14:53:03.072Z,59.10
2019-01-14T14:55:30.630Z,58.90
2019-01-14T14:57:58.069Z,58.90
2019-01-14T15:02:52.954Z,58.80
2019-01-14T15:10:16.946Z,58.90
2019-01-14T15:15:13.608Z,58.90
2019-01-14T15:17:41.092Z,58.90
2019-01-14T15:20:11.013Z,58.90
2019-01-14T15:22:38.326Z,58.90
2019-01-14T15:25:05.797Z,58.90
2019-01-14T15:27:33.123Z,58.80
2019-01-14T15:30:00.471Z,58.70
2019-01-14T15:32:27.855Z,58.70
2019-01-14T15:34:55.305Z,58.70
2019-01-14T15:37:22.695Z,58.60
2019-01-14T15:39:50.099Z,58.60
2019-01-14T15:44:44.813Z,58.70
2019-01-14T15:47:12.122Z,58.50
2019-01-14T15:57:01.594Z,58.60
2019-01-14T15:59:28.893Z,58.50
2019-01-14T16:01:56.184Z,58.60
2019-01-14T16:04:23.613Z,58.60
2019-01-14T16:06:51.019Z,58.70
2019-01-14T16:09:18.247Z,58.70
2019-01-14T16:11:45.891Z,58.80
2019-01-14T16:14:13.315Z,58.70
2019-01-14T16:19:07.933Z,58.70
2019-01-14T16:21:35.363Z,58.60
2019-01-14T16:24:02.659Z,58.50
2019-01-14T16:26:30.003Z,58.50
2019-01-14T16:28:57.305Z,58.60
2019-01-14T16:33:52.071Z,58.60
2019-01-14T16:36:20.083Z,58.60
2019-01-14T16:38:47.606Z,58.60
2019-01-14T16:41:15.029Z,58.60
2019-01-14T16:43:42.353Z,58.70
2019-01-14T16:46:14.540Z,58.80
2019-01-14T16:48:41.930Z,58.80
2019-01-14T16:51:09.450Z,58.60
2019-01-14T16:58:33.900Z,58.50
2019-01-14T17:01:01.418Z,58.50
2019-01-14T17:03:28.857Z,58.40
2019-01-14T17:08:23.626Z,58.30
2019-01-14T17:13:18.476Z,58.10
2019-01-14T17:15:45.910Z,58.00
2019-01-14T17:18:13.186Z,58.00
2019-01-14T17:28:02.624Z,58.10
2019-01-14T17:32:57.308Z,58.20
2019-01-14T17:35:24.738Z,58.20
2019-01-14T17:37:52.162Z,58.20
2019-01-14T17:40:19.651Z,58.20
2019-01-14T17:42:47.223Z,58.20
2019-01-14T17:45:14.620Z,58.10
2019-01-14T17:47:42.072Z,58.20
2019-01-14T17:50:17.454Z,58.20
2019-01-14T17:52:44.953Z,58.20
2019-01-14T17:55:12.757Z,58.20
2019-01-14T17:57:40.186Z,58.30
2019-01-14T18:00:22.266Z,58.40
2019-01-14T18:02:49.621Z,58.40
2019-01-14T18:10:13.948Z,58.10
2019-01-14T18:15:08.855Z,57.90
2019-01-14T18:20:05.286Z,57.80
2019-01-14T18:25:00.033Z,57.90
2019-01-14T18:29:55.464Z,58.00
2019-01-14T18:32:22.874Z,58.10
2019-01-14T18:34:50.413Z,58.00
2019-01-14T18:37:18.337Z,58.10
2019-01-14T18:42:20.463Z,58.00
2019-01-14T18:44:47.857Z,58.00
2019-01-14T18:47:15.377Z,58.00
2019-01-14T18:49:42.719Z,58.10
2019-01-14T18:57:05.262Z,58.10
2019-01-14T18:59:32.657Z,58.20
2019-01-14T19:06:54.597Z,58.20
2019-01-14T19:11:49.300Z,58.20
2019-01-14T19:16:44.189Z,58.20
2019-01-14T19:19:11.567Z,58.10
2019-01-14T19:21:38.992Z,58.10
2019-01-14T19:24:06.336Z,58.10
2019-01-14T19:26:33.749Z,58.00
2019-01-14T19:29:01.204Z,57.90
2019-01-14T19:31:28.652Z,57.90
2019-01-14T19:33:56.113Z,57.90
2019-01-14T19:36:23.578Z,57.90
2019-01-14T19:46:13.128Z,57.60
2019-01-14T19:51:07.853Z,57.60
2019-01-14T19:53:35.288Z,57.60
2019-01-14T19:56:02.670Z,57.60
2019-01-14T19:58:30.157Z,57.70
2019-01-14T20:00:57.580Z,57.60
2019-01-14T20:03:25.040Z,57.50
2019-01-14T20:10:49.858Z,57.40
2019-01-14T20:13:17.486Z,57.50
2019-01-14T20:15:44.911Z,57.40
2019-01-14T20:18:12.344Z,57.40
2019-01-14T20:23:07.121Z,57.40
2019-01-14T20:25:34.650Z,57.40
2019-01-14T20:28:02.369Z,57.50
2019-01-14T20:30:30.183Z,57.60
2019-01-14T20:32:57.579Z,57.60
2019-01-14T20:35:25.021Z,57.50
2019-01-14T20:37:52.412Z,57.50
2019-01-14T20:40:19.711Z,57.50
2019-01-14T20:47:19.315Z,57.40
2019-01-14T20:49:47.160Z,57.40
2019-01-14T20:54:42.239Z,57.30
2019-01-14T20:57:09.662Z,57.30
2019-01-14T20:59:38.646Z,57.30
2019-01-14T21:04:35.010Z,57.30
2019-01-14T21:07:02.546Z,57.20
2019-01-14T21:09:29.969Z,57.20
2019-01-14T21:12:17.828Z,57.20
2019-01-14T21:14:45.295Z,57.30
2019-01-14T21:17:12.698Z,57.10
2019-01-14T21:19:40.123Z,57.20
2019-01-14T21:22:09.767Z,57.30
2019-01-14T21:24:37.010Z,57.20
2019-01-14T21:27:14.652Z,57.10
2019-01-14T21:29:54.161Z,57.00
2019-01-14T21:32:21.961Z,57.10
2019-01-14T21:42:35.383Z,57.10
2019-01-14T21:45:03.493Z,57.20
2019-01-14T21:47:32.716Z,57.20
2019-01-14T21:50:00.416Z,57.20
2019-01-14T21:52:27.764Z,57.30
2019-01-14T21:54:55.143Z,57.30
2019-01-14T21:57:22.515Z,57.30
2019-01-14T21:59:52.919Z,57.30
2019-01-14T22:04:47.687Z,57.10
2019-01-14T22:07:17.992Z,57.10
2019-01-14T22:09:45.339Z,57.00
2019-01-14T22:12:12.748Z,56.90
2019-01-14T22:15:07.780Z,56.80
2019-01-14T22:17:58.285Z,56.90
2019-01-14T22:22:59.323Z,57.00
2019-01-14T22:25:26.610Z,57.10
2019-01-14T22:27:53.953Z,57.00
2019-01-14T22:30:24.340Z,57.10
2019-01-14T22:32:51.697Z,57.10
2019-01-14T22:35:19.136Z,56.90
2019-01-14T22:37:46.380Z,57.00
2019-01-14T22:40:13.799Z,56.90
2019-01-14T22:45:08.668Z,57.00
2019-01-14T22:47:36.120Z,57.00
2019-01-14T22:50:05.847Z,57.00
2019-01-14T22:52:33.061Z,57.00
2019-01-14T22:55:00.303Z,57.00
2019-01-14T22:57:27.795Z,56.90
2019-01-14T23:02:22.903Z,56.90
2019-01-14T23:04:50.500Z,56.80
2019-01-14T23:07:17.819Z,57.30
2019-01-14T23:09:48.193Z,56.70
2019-01-14T23:12:19.132Z,56.80
2019-01-14T23:14:46.512Z,56.80
2019-01-14T23:17:13.840Z,56.70
2019-01-14T23:19:41.206Z,56.80
2019-01-14T23:22:08.667Z,56.70
2019-01-14T23:24:36.006Z,56.70
2019-01-14T23:27:03.359Z,56.50
2019-01-14T23:29:30.668Z,56.40
2019-01-14T23:31:58.078Z,56.40
2019-01-14T23:34:25.306Z,56.30
2019-01-14T23:39:19.996Z,56.20
2019-01-14T23:41:48.247Z,56.10
2019-01-14T23:44:15.521Z,56.10
2019-01-14T23:46:42.929Z,56.00
2019-01-14T23:51:37.619Z,55.90
2019-01-14T23:56:32.447Z,55.70
